sensor_id;sensor_type;location;lat;lon;timestamp;pressure;altitude;pressure_sealevel;temperature;humidity
61010;BME280;46897;55.340;86.082;2022-09-09T00:01:29;100444.78;;;6.36;74.42
61010;BME280;46897;55.340;86.082;2022-09-09T00:04:13;100394.06;;;5.90;74.17
61010;BME280;46897;55.340;86.082;2022-09-09T00:06:48;100445.72;;;6.34;74.46
61010;BME280;46897;55.340;86.082;2022-09-09T00:09:27;100440.59;;;6.27;74.82
61010;BME280;46897;55.340;86.082;2022-09-09T00:12:04;100388.78;;;5.95;74.82
61010;BME280;46897;55.340;86.082;2022-09-09T00:14:45;100426.75;;;6.19;74.45
61010;BME280;46897;55.340;86.082;2022-09-09T00:17:26;100463.16;;;6.38;74.99
61010;BME280;46897;55.340;86.082;2022-09-09T00:20:12;100458.72;;;6.41;74.74
61010;BME280;46897;55.340;86.082;2022-09-09T00:23:04;100385.50;;;5.82;74.66
61010;BME280;46897;55.340;86.082;2022-09-09T00:26:12;100470.72;;;6.52;74.99
61010;BME280;46897;55.340;86.082;2022-09-09T00:29:04;100393.72;;;6.09;74.73
61010;BME280;46897;55.340;86.082;2022-09-09T00:31:54;100481.97;;;6.58;74.67
61010;BME280;46897;55.340;86.082;2022-09-09T00:34:47;100456.81;;;6.46;74.48
61010;BME280;46897;55.340;86.082;2022-09-09T00:37:21;100395.50;;;6.08;74.28
61010;BME280;46897;55.340;86.082;2022-09-09T00:40:01;100479.44;;;6.54;74.98
61010;BME280;46897;55.340;86.082;2022-09-09T00:42:40;100386.00;;;6.01;75.22
61010;BME280;46897;55.340;86.082;2022-09-09T00:45:26;100477.53;;;6.60;74.81
61010;BME280;46897;55.340;86.082;2022-09-09T00:48:19;100324.56;;;5.66;74.67
61010;BME280;46897;55.340;86.082;2022-09-09T00:50:55;100403.94;;;6.21;75.38
61010;BME280;46897;55.340;86.082;2022-09-09T00:53:39;100474.72;;;6.68;75.74
61010;BME280;46897;55.340;86.082;2022-09-09T00:56:26;100427.91;;;6.45;75.40
61010;BME280;46897;55.340;86.082;2022-09-09T01:07:37;100409.25;;;6.92;74.91
61010;BME280;46897;55.340;86.082;2022-09-09T01:10:30;100421.44;;;7.28;74.89
61010;BME280;46897;55.340;86.082;2022-09-09T01:13:39;100473.88;;;8.00;74.41
61010;BME280;46897;55.340;86.082;2022-09-09T01:16:15;100391.44;;;7.94;74.54
61010;BME280;46897;55.340;86.082;2022-09-09T01:18:55;100436.03;;;8.59;74.59
61010;BME280;46897;55.340;86.082;2022-09-09T01:21:50;100491.31;;;9.17;73.94
61010;BME280;46897;55.340;86.082;2022-09-09T01:25:18;100398.13;;;8.89;73.43
61010;BME280;46897;55.340;86.082;2022-09-09T01:27:51;100356.34;;;8.75;73.24
61010;BME280;46897;55.340;86.082;2022-09-09T01:30:22;100444.44;;;9.49;73.30
61010;BME280;46897;55.340;86.082;2022-09-09T01:32:54;100422.50;;;9.47;73.15
61010;BME280;46897;55.340;86.082;2022-09-09T01:35:42;100423.06;;;9.55;73.11
61010;BME280;46897;55.340;86.082;2022-09-09T01:38:12;100478.16;;;9.91;72.86
61010;BME280;46897;55.340;86.082;2022-09-09T01:40:42;100467.22;;;10.00;72.54
61010;BME280;46897;55.340;86.082;2022-09-09T01:43:13;100486.53;;;10.26;72.51
61010;BME280;46897;55.340;86.082;2022-09-09T01:45:42;100470.78;;;10.23;72.57
61010;BME280;46897;55.340;86.082;2022-09-09T01:48:13;100461.78;;;10.27;72.63
61010;BME280;46897;55.340;86.082;2022-09-09T01:50:44;100463.28;;;10.36;72.53
61010;BME280;46897;55.340;86.082;2022-09-09T01:53:14;100463.53;;;10.52;72.65
61010;BME280;46897;55.340;86.082;2022-09-09T01:55:48;100342.91;;;9.78;72.65
61010;BME280;46897;55.340;86.082;2022-09-09T01:58:51;100315.63;;;9.78;72.18
61010;BME280;46897;55.340;86.082;2022-09-09T02:01:58;100355.94;;;10.07;72.19
61010;BME280;46897;55.340;86.082;2022-09-09T02:05:00;100508.06;;;11.07;71.93
61010;BME280;46897;55.340;86.082;2022-09-09T02:07:39;100323.81;;;10.16;71.58
61010;BME280;46897;55.340;86.082;2022-09-09T02:10:17;100475.56;;;11.03;71.70
61010;BME280;46897;55.340;86.082;2022-09-09T02:12:54;100420.03;;;10.79;71.48
61010;BME280;46897;55.340;86.082;2022-09-09T02:15:53;100418.19;;;10.81;71.25
61010;BME280;46897;55.340;86.082;2022-09-09T02:21:29;100466.34;;;11.12;70.76
61010;BME280;46897;55.340;86.082;2022-09-09T02:24:02;100476.41;;;11.24;70.89
61010;BME280;46897;55.340;86.082;2022-09-09T02:26:36;100477.16;;;11.28;70.67
61010;BME280;46897;55.340;86.082;2022-09-09T02:29:11;100429.81;;;10.99;70.38
61010;BME280;46897;55.340;86.082;2022-09-09T02:31:45;100362.38;;;10.66;70.23
61010;BME280;46897;55.340;86.082;2022-09-09T02:34:18;100503.00;;;11.64;70.10
61010;BME280;46897;55.340;86.082;2022-09-09T02:36:50;100423.38;;;11.26;69.96
61010;BME280;46897;55.340;86.082;2022-09-09T02:39:19;100500.34;;;11.84;70.04
61010;BME280;46897;55.340;86.082;2022-09-09T02:41:49;100470.63;;;11.76;69.85
61010;BME280;46897;55.340;86.082;2022-09-09T02:44:19;100511.59;;;12.10;69.64
61010;BME280;46897;55.340;86.082;2022-09-09T02:47:07;100431.94;;;11.72;69.26
61010;BME280;46897;55.340;86.082;2022-09-09T02:49:48;100486.50;;;12.17;69.09
61010;BME280;46897;55.340;86.082;2022-09-09T02:52:20;100452.06;;;11.96;69.23
61010;BME280;46897;55.340;86.082;2022-09-09T02:54:59;100508.16;;;12.46;69.05
61010;BME280;46897;55.340;86.082;2022-09-09T02:57:33;100496.13;;;12.57;69.08
61010;BME280;46897;55.340;86.082;2022-09-09T03:00:05;100484.88;;;12.70;69.04
61010;BME280;46897;55.340;86.082;2022-09-09T03:02:36;100515.53;;;13.13;68.95
61010;BME280;46897;55.340;86.082;2022-09-09T03:05:06;100415.00;;;12.69;68.22
61010;BME280;46897;55.340;86.082;2022-09-09T03:07:36;100481.03;;;13.31;67.91
61010;BME280;46897;55.340;86.082;2022-09-09T03:10:08;100481.53;;;13.37;67.59
61010;BME280;46897;55.340;86.082;2022-09-09T03:12:38;100485.44;;;13.48;67.75
61010;BME280;46897;55.340;86.082;2022-09-09T03:15:08;100447.75;;;13.40;67.45
61010;BME280;46897;55.340;86.082;2022-09-09T03:17:40;100418.44;;;13.41;67.44
61010;BME280;46897;55.340;86.082;2022-09-09T03:20:10;100475.22;;;13.91;66.99
61010;BME280;46897;55.340;86.082;2022-09-09T03:22:39;100508.50;;;14.31;66.77
61010;BME280;46897;55.340;86.082;2022-09-09T03:25:09;100514.78;;;14.46;66.67
61010;BME280;46897;55.340;86.082;2022-09-09T03:27:38;100464.19;;;14.30;66.26
61010;BME280;46897;55.340;86.082;2022-09-09T03:30:08;100512.59;;;14.70;66.03
61010;BME280;46897;55.340;86.082;2022-09-09T03:32:39;100468.13;;;14.55;65.81
61010;BME280;46897;55.340;86.082;2022-09-09T03:35:15;100514.81;;;14.94;65.71
61010;BME280;46897;55.340;86.082;2022-09-09T03:37:45;100526.31;;;15.10;65.38
61010;BME280;46897;55.340;86.082;2022-09-09T03:40:16;100518.84;;;15.01;64.96
61010;BME280;46897;55.340;86.082;2022-09-09T03:42:47;100393.47;;;14.41;64.84
61010;BME280;46897;55.340;86.082;2022-09-09T03:45:17;100551.53;;;15.35;64.31
61010;BME280;46897;55.340;86.082;2022-09-09T03:47:48;100385.59;;;14.39;64.23
61010;BME280;46897;55.340;86.082;2022-09-09T03:50:18;100366.78;;;14.42;64.14
61010;BME280;46897;55.340;86.082;2022-09-09T03:52:48;100364.63;;;14.49;63.94
61010;BME280;46897;55.340;86.082;2022-09-09T03:55:21;100413.69;;;14.91;63.78
61010;BME280;46897;55.340;86.082;2022-09-09T03:57:53;100383.44;;;14.92;63.61
61010;BME280;46897;55.340;86.082;2022-09-09T04:00:24;100512.31;;;15.82;63.27
61010;BME280;46897;55.340;86.082;2022-09-09T04:02:55;100534.72;;;16.08;63.09
61010;BME280;46897;55.340;86.082;2022-09-09T04:05:25;100526.44;;;16.12;63.17
61010;BME280;46897;55.340;86.082;2022-09-09T04:07:54;100361.41;;;15.19;63.03
61010;BME280;46897;55.340;86.082;2022-09-09T04:10:24;100470.09;;;15.88;62.50
61010;BME280;46897;55.340;86.082;2022-09-09T04:12:54;100428.16;;;15.76;62.45
61010;BME280;46897;55.340;86.082;2022-09-09T04:15:23;100547.28;;;16.63;62.48
61010;BME280;46897;55.340;86.082;2022-09-09T04:17:52;100522.75;;;16.71;62.20
61010;BME280;46897;55.340;86.082;2022-09-09T04:20:23;100522.72;;;16.85;62.10
61010;BME280;46897;55.340;86.082;2022-09-09T04:22:53;100487.44;;;16.66;62.20
61010;BME280;46897;55.340;86.082;2022-09-09T04:25:22;100541.25;;;16.88;62.07
61010;BME280;46897;55.340;86.082;2022-09-09T04:27:54;100462.69;;;16.35;61.85
61010;BME280;46897;55.340;86.082;2022-09-09T04:30:24;100547.34;;;16.76;61.88
61010;BME280;46897;55.340;86.082;2022-09-09T04:32:54;100522.50;;;16.61;61.90
61010;BME280;46897;55.340;86.082;2022-09-09T04:35:27;100511.44;;;16.39;61.88
61010;BME280;46897;55.340;86.082;2022-09-09T04:37:56;100521.34;;;16.51;62.13
61010;BME280;46897;55.340;86.082;2022-09-09T04:40:26;100415.47;;;15.80;62.12
61010;BME280;46897;55.340;86.082;2022-09-09T04:42:57;100530.59;;;16.60;61.90
61010;BME280;46897;55.340;86.082;2022-09-09T04:45:26;100432.72;;;15.88;61.65
61010;BME280;46897;55.340;86.082;2022-09-09T04:47:56;100523.06;;;16.52;61.48
61010;BME280;46897;55.340;86.082;2022-09-09T04:50:27;100499.69;;;16.41;61.52
61010;BME280;46897;55.340;86.082;2022-09-09T04:53:00;100538.13;;;16.67;61.50
61010;BME280;46897;55.340;86.082;2022-09-09T04:55:29;100554.69;;;16.73;61.38
61010;BME280;46897;55.340;86.082;2022-09-09T04:58:03;100552.81;;;16.75;61.42
61010;BME280;46897;55.340;86.082;2022-09-09T05:00:34;100540.94;;;16.93;61.58
61010;BME280;46897;55.340;86.082;2022-09-09T05:03:04;100543.69;;;17.19;61.46
61010;BME280;46897;55.340;86.082;2022-09-09T05:05:36;100523.81;;;17.23;60.78
61010;BME280;46897;55.340;86.082;2022-09-09T05:08:07;100542.81;;;17.45;60.18
61010;BME280;46897;55.340;86.082;2022-09-09T05:10:38;100430.00;;;16.86;59.74
61010;BME280;46897;55.340;86.082;2022-09-09T05:13:09;100500.06;;;17.18;59.89
61010;BME280;46897;55.340;86.082;2022-09-09T05:15:38;100477.50;;;17.22;59.95
61010;BME280;46897;55.340;86.082;2022-09-09T05:18:10;100498.69;;;17.38;59.85
61010;BME280;46897;55.340;86.082;2022-09-09T05:20:41;100504.75;;;17.15;59.75
61010;BME280;46897;55.340;86.082;2022-09-09T05:23:11;100513.94;;;17.10;59.95
61010;BME280;46897;55.340;86.082;2022-09-09T05:25:41;100498.19;;;16.79;59.81
61010;BME280;46897;55.340;86.082;2022-09-09T05:28:11;100471.72;;;16.47;59.70
61010;BME280;46897;55.340;86.082;2022-09-09T05:30:40;100534.47;;;16.68;60.15
61010;BME280;46897;55.340;86.082;2022-09-09T05:33:12;100523.06;;;16.52;59.76
61010;BME280;46897;55.340;86.082;2022-09-09T05:35:43;100523.47;;;16.31;59.88
61010;BME280;46897;55.340;86.082;2022-09-09T05:38:12;100508.22;;;16.05;59.59
61010;BME280;46897;55.340;86.082;2022-09-09T05:40:47;100468.19;;;15.76;59.25
61010;BME280;46897;55.340;86.082;2022-09-09T05:43:17;100467.41;;;15.74;59.51
61010;BME280;46897;55.340;86.082;2022-09-09T05:45:59;100451.19;;;15.63;58.31
61010;BME280;46897;55.340;86.082;2022-09-09T05:48:32;100491.44;;;15.88;58.76
61010;BME280;46897;55.340;86.082;2022-09-09T05:51:10;100503.44;;;15.81;58.20
61010;BME280;46897;55.340;86.082;2022-09-09T05:53:49;100389.38;;;15.11;58.23
61010;BME280;46897;55.340;86.082;2022-09-09T05:56:23;100472.41;;;15.64;58.53
61010;BME280;46897;55.340;86.082;2022-09-09T05:58:54;100492.38;;;15.73;58.58
61010;BME280;46897;55.340;86.082;2022-09-09T06:01:25;100431.75;;;15.61;58.61
61010;BME280;46897;55.340;86.082;2022-09-09T06:03:55;100482.09;;;16.10;58.23
61010;BME280;46897;55.340;86.082;2022-09-09T06:06:31;100451.03;;;16.09;58.01
61010;BME280;46897;55.340;86.082;2022-09-09T06:09:05;100465.78;;;16.29;57.85
61010;BME280;46897;55.340;86.082;2022-09-09T06:11:38;100475.97;;;16.37;57.11
61010;BME280;46897;55.340;86.082;2022-09-09T06:14:08;100470.84;;;16.19;57.42
61010;BME280;46897;55.340;86.082;2022-09-09T06:16:37;100474.28;;;16.21;57.27
61010;BME280;46897;55.340;86.082;2022-09-09T06:19:07;100445.78;;;15.93;56.97
61010;BME280;46897;55.340;86.082;2022-09-09T06:21:43;100453.69;;;15.95;57.33
61010;BME280;46897;55.340;86.082;2022-09-09T06:24:15;100441.88;;;15.84;57.07
61010;BME280;46897;55.340;86.082;2022-09-09T06:26:46;100454.72;;;15.78;56.94
61010;BME280;46897;55.340;86.082;2022-09-09T06:29:16;100463.03;;;15.87;56.61
61010;BME280;46897;55.340;86.082;2022-09-09T06:31:46;100470.94;;;15.89;57.09
61010;BME280;46897;55.340;86.082;2022-09-09T06:34:18;100430.72;;;15.78;57.13
61010;BME280;46897;55.340;86.082;2022-09-09T06:36:51;100395.81;;;15.66;56.75
61010;BME280;46897;55.340;86.082;2022-09-09T06:39:20;100468.06;;;16.06;56.48
61010;BME280;46897;55.340;86.082;2022-09-09T06:41:49;100444.94;;;15.78;56.09
61010;BME280;46897;55.340;86.082;2022-09-09T06:44:20;100384.84;;;15.28;56.04
61010;BME280;46897;55.340;86.082;2022-09-09T06:46:50;100465.53;;;15.76;55.91
61010;BME280;46897;55.340;86.082;2022-09-09T06:49:23;100467.75;;;15.68;55.97
61010;BME280;46897;55.340;86.082;2022-09-09T06:51:56;100411.91;;;15.50;55.82
61010;BME280;46897;55.340;86.082;2022-09-09T06:54:25;100409.38;;;15.78;56.32
61010;BME280;46897;55.340;86.082;2022-09-09T06:57:09;100370.94;;;16.09;56.11
61010;BME280;46897;55.340;86.082;2022-09-09T06:59:58;100400.31;;;16.90;55.59
61010;BME280;46897;55.340;86.082;2022-09-09T07:02:28;100448.94;;;17.61;55.23
61010;BME280;46897;55.340;86.082;2022-09-09T07:04:57;100429.69;;;17.82;55.00
61010;BME280;46897;55.340;86.082;2022-09-09T07:07:29;100387.19;;;17.77;54.05
61010;BME280;46897;55.340;86.082;2022-09-09T07:09:59;100448.47;;;18.32;54.01
61010;BME280;46897;55.340;86.082;2022-09-09T07:12:28;100377.66;;;17.73;53.18
61010;BME280;46897;55.340;86.082;2022-09-09T07:15:08;100385.34;;;17.78;53.34
61010;BME280;46897;55.340;86.082;2022-09-09T07:17:38;100334.22;;;17.44;53.70
61010;BME280;46897;55.340;86.082;2022-09-09T07:20:10;100435.22;;;18.17;53.11
61010;BME280;46897;55.340;86.082;2022-09-09T07:22:42;100383.84;;;17.99;52.81
61010;BME280;46897;55.340;86.082;2022-09-09T07:25:14;100283.91;;;17.49;52.27
61010;BME280;46897;55.340;86.082;2022-09-09T07:27:45;100443.88;;;18.58;52.38
61010;BME280;46897;55.340;86.082;2022-09-09T07:30:14;100417.69;;;18.61;52.44
61010;BME280;46897;55.340;86.082;2022-09-09T07:32:51;100406.47;;;18.56;50.04
61010;BME280;46897;55.340;86.082;2022-09-09T07:35:21;100353.81;;;18.07;50.69
61010;BME280;46897;55.340;86.082;2022-09-09T07:37:54;100352.25;;;18.28;51.33
61010;BME280;46897;55.340;86.082;2022-09-09T07:40:50;100436.94;;;19.03;50.29
61010;BME280;46897;55.340;86.082;2022-09-09T07:43:35;100317.59;;;18.14;49.78
61010;BME280;46897;55.340;86.082;2022-09-09T07:46:05;100344.44;;;18.25;50.21
61010;BME280;46897;55.340;86.082;2022-09-09T07:48:36;100414.84;;;18.76;50.88
61010;BME280;46897;55.340;86.082;2022-09-09T07:51:08;100410.16;;;18.91;51.06
61010;BME280;46897;55.340;86.082;2022-09-09T07:53:45;100408.97;;;18.95;50.87
61010;BME280;46897;55.340;86.082;2022-09-09T07:56:24;100447.44;;;19.18;51.89
61010;BME280;46897;55.340;86.082;2022-09-09T07:59:08;100399.78;;;18.62;51.17
61010;BME280;46897;55.340;86.082;2022-09-09T08:02:05;100426.94;;;18.57;50.89
61010;BME280;46897;55.340;86.082;2022-09-09T08:04:35;100474.22;;;18.58;50.66
61010;BME280;46897;55.340;86.082;2022-09-09T08:07:12;100425.94;;;17.97;51.02
61010;BME280;46897;55.340;86.082;2022-09-09T08:09:46;100440.19;;;17.59;51.32
61010;BME280;46897;55.340;86.082;2022-09-09T08:12:16;100491.66;;;17.37;51.44
61010;BME280;46897;55.340;86.082;2022-09-09T08:14:45;100461.84;;;16.35;52.11
61010;BME280;46897;55.340;86.082;2022-09-09T08:17:16;100408.47;;;15.34;53.58
61010;BME280;46897;55.340;86.082;2022-09-09T08:19:57;100490.16;;;15.21;55.93
61010;BME280;46897;55.340;86.082;2022-09-09T08:22:32;100483.78;;;14.45;56.26
61010;BME280;46897;55.340;86.082;2022-09-09T08:25:04;100474.81;;;14.14;56.63
61010;BME280;46897;55.340;86.082;2022-09-09T08:27:34;100478.25;;;14.16;56.94
61010;BME280;46897;55.340;86.082;2022-09-09T08:30:05;100478.53;;;14.28;57.10
61010;BME280;46897;55.340;86.082;2022-09-09T08:32:34;100483.16;;;14.40;57.52
61010;BME280;46897;55.340;86.082;2022-09-09T08:35:07;100454.72;;;14.41;57.66
61010;BME280;46897;55.340;86.082;2022-09-09T08:37:37;100435.16;;;14.58;57.59
61010;BME280;46897;55.340;86.082;2022-09-09T08:40:18;100338.88;;;14.33;57.36
61010;BME280;46897;55.340;86.082;2022-09-09T08:42:53;100447.28;;;15.24;56.86
61010;BME280;46897;55.340;86.082;2022-09-09T08:45:29;100448.09;;;15.40;56.90
61010;BME280;46897;55.340;86.082;2022-09-09T08:48:12;100334.41;;;14.80;56.83
61010;BME280;46897;55.340;86.082;2022-09-09T08:50:52;100455.03;;;15.73;56.81
61010;BME280;46897;55.340;86.082;2022-09-09T08:53:39;100465.22;;;16.09;56.55
61010;BME280;46897;55.340;86.082;2022-09-09T08:56:35;100464.03;;;16.42;56.49
61010;BME280;46897;55.340;86.082;2022-09-09T08:59:29;100286.34;;;15.82;56.30
61010;BME280;46897;55.340;86.082;2022-09-09T09:02:24;100476.13;;;16.89;55.46
61010;BME280;46897;55.340;86.082;2022-09-09T09:05:18;100402.13;;;16.36;55.59
61010;BME280;46897;55.340;86.082;2022-09-09T09:08:01;100373.94;;;16.17;55.63
61010;BME280;46897;55.340;86.082;2022-09-09T09:10:42;100432.91;;;16.83;56.18
61010;BME280;46897;55.340;86.082;2022-09-09T09:13:34;100363.34;;;16.70;56.20
61010;BME280;46897;55.340;86.082;2022-09-09T09:16:21;100439.25;;;17.73;56.14
61010;BME280;46897;55.340;86.082;2022-09-09T09:18:59;100434.53;;;18.26;55.46
61010;BME280;46897;55.340;86.082;2022-09-09T09:21:36;100315.81;;;17.39;54.91
61010;BME280;46897;55.340;86.082;2022-09-09T09:24:16;100409.72;;;18.12;55.06
61010;BME280;46897;55.340;86.082;2022-09-09T09:26:48;100391.94;;;18.23;54.64
61010;BME280;46897;55.340;86.082;2022-09-09T09:29:21;100381.38;;;18.57;53.83
61010;BME280;46897;55.340;86.082;2022-09-09T09:32:21;100387.75;;;19.50;53.24
61010;BME280;46897;55.340;86.082;2022-09-09T09:34:52;100431.91;;;20.47;51.27
61010;BME280;46897;55.340;86.082;2022-09-09T09:37:31;100451.66;;;21.01;49.00
61010;BME280;46897;55.340;86.082;2022-09-09T09:40:10;100425.25;;;21.27;48.67
61010;BME280;46897;55.340;86.082;2022-09-09T09:42:49;100427.22;;;21.67;47.42
61010;BME280;46897;55.340;86.082;2022-09-09T09:45:47;100292.91;;;22.23;46.36
61010;BME280;46897;55.340;86.082;2022-09-09T09:48:40;100438.41;;;24.81;46.64
61010;BME280;46897;55.340;86.082;2022-09-09T09:51:12;100356.41;;;24.63;45.96
61010;BME280;46897;55.340;86.082;2022-09-09T09:53:43;100365.88;;;24.03;46.11
61010;BME280;46897;55.340;86.082;2022-09-09T09:56:26;100439.44;;;23.50;45.11
61010;BME280;46897;55.340;86.082;2022-09-09T09:58:56;100368.75;;;21.89;46.75
61010;BME280;46897;55.340;86.082;2022-09-09T10:01:32;100414.66;;;21.35;47.28
61010;BME280;46897;55.340;86.082;2022-09-09T10:04:14;100410.13;;;20.73;48.32
61010;BME280;46897;55.340;86.082;2022-09-09T10:06:46;100415.94;;;20.34;48.50
61010;BME280;46897;55.340;86.082;2022-09-09T10:09:22;100434.50;;;20.26;48.67
61010;BME280;46897;55.340;86.082;2022-09-09T10:11:57;100431.00;;;20.03;48.46
61010;BME280;46897;55.340;86.082;2022-09-09T10:14:38;100425.97;;;20.10;48.99
61010;BME280;46897;55.340;86.082;2022-09-09T10:17:19;100359.69;;;19.42;49.01
61010;BME280;46897;55.340;86.082;2022-09-09T10:20:10;100372.13;;;19.32;49.15
61010;BME280;46897;55.340;86.082;2022-09-09T10:22:47;100432.88;;;19.44;49.45
61010;BME280;46897;55.340;86.082;2022-09-09T10:25:27;100419.66;;;19.19;49.39
61010;BME280;46897;55.340;86.082;2022-09-09T10:28:24;100357.81;;;18.50;49.64
61010;BME280;46897;55.340;86.082;2022-09-09T10:31:07;100391.06;;;18.47;49.78
61010;BME280;46897;55.340;86.082;2022-09-09T10:33:48;100429.78;;;18.80;49.69
61010;BME280;46897;55.340;86.082;2022-09-09T10:36:21;100359.25;;;18.42;49.72
61010;BME280;46897;55.340;86.082;2022-09-09T10:38:57;100430.50;;;18.82;49.66
61010;BME280;46897;55.340;86.082;2022-09-09T10:41:50;100435.97;;;18.56;49.79
61010;BME280;46897;55.340;86.082;2022-09-09T10:44:32;100351.88;;;17.85;50.15
61010;BME280;46897;55.340;86.082;2022-09-09T10:50:18;100395.56;;;17.60;50.56
61010;BME280;46897;55.340;86.082;2022-09-09T10:53:26;100415.38;;;17.44;50.43
61010;BME280;46897;55.340;86.082;2022-09-09T10:56:02;100272.13;;;16.36;50.87
61010;BME280;46897;55.340;86.082;2022-09-09T10:58:40;100407.28;;;17.19;51.38
61010;BME280;46897;55.340;86.082;2022-09-09T11:01:15;100413.81;;;17.15;51.40
61010;BME280;46897;55.340;86.082;2022-09-09T11:03:54;100411.44;;;16.97;51.41
61010;BME280;46897;55.340;86.082;2022-09-09T11:07:05;100425.03;;;17.07;51.71
61010;BME280;46897;55.340;86.082;2022-09-09T11:10:01;100427.72;;;16.94;52.30
61010;BME280;46897;55.340;86.082;2022-09-09T11:12:35;100367.19;;;16.39;52.38
61010;BME280;46897;55.340;86.082;2022-09-09T11:15:16;100425.38;;;16.75;52.38
61010;BME280;46897;55.340;86.082;2022-09-09T11:17:50;100436.56;;;16.67;52.08
61010;BME280;46897;55.340;86.082;2022-09-09T11:20:25;100393.00;;;16.25;52.17
61010;BME280;46897;55.340;86.082;2022-09-09T11:23:04;100401.75;;;16.27;51.94
61010;BME280;46897;55.340;86.082;2022-09-09T11:25:40;100402.53;;;16.29;52.18
61010;BME280;46897;55.340;86.082;2022-09-09T11:28:31;100401.41;;;16.19;52.33
61010;BME280;46897;55.340;86.082;2022-09-09T11:31:17;100339.31;;;15.88;52.26
61010;BME280;46897;55.340;86.082;2022-09-09T11:34:31;100360.09;;;15.98;52.67
61010;BME280;46897;55.340;86.082;2022-09-09T11:40:40;100422.56;;;16.22;52.77
61010;BME280;46897;55.340;86.082;2022-09-09T11:43:23;100369.47;;;15.76;53.23
61010;BME280;46897;55.340;86.082;2022-09-09T11:45:59;100440.72;;;16.17;53.16
61010;BME280;46897;55.340;86.082;2022-09-09T11:48:39;100282.56;;;15.14;53.23
61010;BME280;46897;55.340;86.082;2022-09-09T12:00:34;100365.78;;;15.20;53.86
61010;BME280;46897;55.340;86.082;2022-09-09T12:03:05;100356.94;;;15.19;54.12
61010;BME280;46897;55.340;86.082;2022-09-09T12:05:39;100411.34;;;15.45;54.12
61010;BME280;46897;55.340;86.082;2022-09-09T12:08:11;100411.63;;;15.41;54.32
61010;BME280;46897;55.340;86.082;2022-09-09T12:10:53;100333.19;;;14.86;54.17
61010;BME280;46897;55.340;86.082;2022-09-09T12:13:24;100352.59;;;14.88;54.42
61010;BME280;46897;55.340;86.082;2022-09-09T12:15:58;100381.53;;;14.94;54.49
61010;BME280;46897;55.340;86.082;2022-09-09T12:18:33;100412.44;;;15.12;54.79
61010;BME280;46897;55.340;86.082;2022-09-09T12:21:11;100360.50;;;14.59;54.44
61010;BME280;46897;55.340;86.082;2022-09-09T12:23:50;100434.78;;;15.10;54.46
61010;BME280;46897;55.340;86.082;2022-09-09T12:26:27;100364.25;;;14.55;54.36
61010;BME280;46897;55.340;86.082;2022-09-09T12:29:09;100406.09;;;14.69;54.29
61010;BME280;46897;55.340;86.082;2022-09-09T12:31:47;100345.78;;;14.22;54.33
61010;BME280;46897;55.340;86.082;2022-09-09T12:34:30;100454.66;;;14.74;54.65
61010;BME280;46897;55.340;86.082;2022-09-09T12:37:11;100426.81;;;14.48;54.71
61010;BME280;46897;55.340;86.082;2022-09-09T12:39:54;100378.03;;;14.15;54.69
61010;BME280;46897;55.340;86.082;2022-09-09T12:42:26;100278.47;;;13.40;54.98
61010;BME280;46897;55.340;86.082;2022-09-09T12:48:51;100416.69;;;14.07;55.26
61010;BME280;46897;55.340;86.082;2022-09-09T12:51:24;100459.28;;;14.39;55.55
61010;BME280;46897;55.340;86.082;2022-09-09T12:53:55;100426.38;;;14.08;55.71
61010;BME280;46897;55.340;86.082;2022-09-09T12:56:31;100471.31;;;14.30;56.05
61010;BME280;46897;55.340;86.082;2022-09-09T12:59:03;100494.59;;;14.26;56.07
61010;BME280;46897;55.340;86.082;2022-09-09T13:01:33;100338.75;;;13.40;56.38
61010;BME280;46897;55.340;86.082;2022-09-09T13:04:20;100456.34;;;14.11;56.68
61010;BME280;46897;55.340;86.082;2022-09-09T13:06:50;100448.28;;;13.97;56.80
61010;BME280;46897;55.340;86.082;2022-09-09T13:09:21;100377.56;;;13.60;56.89
61010;BME280;46897;55.340;86.082;2022-09-09T13:11:52;100436.94;;;13.93;57.29
61010;BME280;46897;55.340;86.082;2022-09-09T13:14:32;100419.13;;;13.78;57.42
61010;BME280;46897;55.340;86.082;2022-09-09T13:17:06;100383.47;;;13.49;57.47
61010;BME280;46897;55.340;86.082;2022-09-09T13:19:38;100398.59;;;13.48;57.43
61010;BME280;46897;55.340;86.082;2022-09-09T13:22:13;100470.13;;;13.86;57.62
61010;BME280;46897;55.340;86.082;2022-09-09T13:24:42;100469.53;;;13.81;57.72
61010;BME280;46897;55.340;86.082;2022-09-09T13:27:26;100458.53;;;13.71;57.98
61010;BME280;46897;55.340;86.082;2022-09-09T13:29:56;100424.47;;;13.45;57.91
61010;BME280;46897;55.340;86.082;2022-09-09T13:32:27;100450.56;;;13.54;58.31
61010;BME280;46897;55.340;86.082;2022-09-09T13:34:59;100468.25;;;13.55;58.48
61010;BME280;46897;55.340;86.082;2022-09-09T13:37:32;100453.09;;;13.40;58.91
61010;BME280;46897;55.340;86.082;2022-09-09T13:40:03;100449.00;;;13.32;59.05
61010;BME280;46897;55.340;86.082;2022-09-09T13:42:38;100457.13;;;13.29;59.20
61010;BME280;46897;55.340;86.082;2022-09-09T13:45:16;100481.63;;;13.36;59.55
61010;BME280;46897;55.340;86.082;2022-09-09T13:47:48;100453.59;;;13.11;59.53
61010;BME280;46897;55.340;86.082;2022-09-09T13:50:23;100475.66;;;13.13;59.86
61010;BME280;46897;55.340;86.082;2022-09-09T13:52:54;100486.13;;;13.16;60.12
61010;BME280;46897;55.340;86.082;2022-09-09T13:55:28;100487.53;;;13.06;60.31
61010;BME280;46897;55.340;86.082;2022-09-09T13:57:59;100498.31;;;13.03;60.55
61010;BME280;46897;55.340;86.082;2022-09-09T14:00:31;100450.13;;;12.74;60.68